sensor_id;sensor_type;location;lat;lon;timestamp;temperature;humidity
13835;DHT22;6988;52.614;13.500;2023-03-05T00:02:53;3.30;99.90
13835;DHT22;6988;52.614;13.500;2023-03-05T00:07:45;3.30;99.90
13835;DHT22;6988;52.614;13.500;2023-03-05T00:12:38;3.40;99.90
13835;DHT22;6988;52.614;13.500;2023-03-05T00:17:30;3.30;99.90
13835;DHT22;6988;52.614;13.500;2023-03-05T00:22:23;3.30;99.90
13835;DHT22;6988;52.614;13.500;2023-03-05T00:27:14;3.30;99.90
13835;DHT22;6988;52.614;13.500;2023-03-05T00:32:06;3.20;99.90
13835;DHT22;6988;52.614;13.500;2023-03-05T00:36:58;3.20;99.90
13835;DHT22;6988;52.614;13.500;2023-03-05T00:41:51;3.20;99.90
13835;DHT22;6988;52.614;13.500;2023-03-05T00:46:43;3.20;99.90
13835;DHT22;6988;52.614;13.500;2023-03-05T00:51:35;3.20;99.90
13835;DHT22;6988;52.614;13.500;2023-03-05T00:56:27;3.10;99.90
13835;DHT22;6988;52.614;13.500;2023-03-05T01:01:20;3.20;99.90
13835;DHT22;6988;52.614;13.500;2023-03-05T01:06:13;3.10;99.90
13835;DHT22;6988;52.614;13.500;2023-03-05T01:11:07;3.10;99.90
13835;DHT22;6988;52.614;13.500;2023-03-05T01:16:00;3.10;99.90
13835;DHT22;6988;52.614;13.500;2023-03-05T01:20:53;3.00;99.90
13835;DHT22;6988;52.614;13.500;2023-03-05T01:25:52;3.00;99.90
13835;DHT22;6988;52.614;13.500;2023-03-05T01:30:45;3.00;99.90
13835;DHT22;6988;52.614;13.500;2023-03-05T01:35:37;3.10;99.90
13835;DHT22;6988;52.614;13.500;2023-03-05T01:40:30;3.00;99.90
13835;DHT22;6988;52.614;13.500;2023-03-05T01:45:22;2.90;99.90
13835;DHT22;6988;52.614;13.500;2023-03-05T01:50:17;2.90;99.90
13835;DHT22;6988;52.614;13.500;2023-03-05T01:55:15;2.90;99.90
13835;DHT22;6988;52.614;13.500;2023-03-05T02:00:15;2.90;99.90
13835;DHT22;6988;52.614;13.500;2023-03-05T02:05:13;2.80;99.90
13835;DHT22;6988;52.614;13.500;2023-03-05T02:10:17;2.80;99.90
13835;DHT22;6988;52.614;13.500;2023-03-05T02:15:12;2.70;99.90
13835;DHT22;6988;52.614;13.500;2023-03-05T02:20:07;2.60;99.90
13835;DHT22;6988;52.614;13.500;2023-03-05T02:25:12;2.60;99.90
13835;DHT22;6988;52.614;13.500;2023-03-05T02:30:08;2.50;99.90
13835;DHT22;6988;52.614;13.500;2023-03-05T02:35:00;2.50;99.90
13835;DHT22;6988;52.614;13.500;2023-03-05T02:39:53;2.30;99.90
13835;DHT22;6988;52.614;13.500;2023-03-05T02:44:46;2.30;99.90
13835;DHT22;6988;52.614;13.500;2023-03-05T02:49:38;2.30;99.90
13835;DHT22;6988;52.614;13.500;2023-03-05T02:54:30;2.30;99.90
13835;DHT22;6988;52.614;13.500;2023-03-05T02:59:22;2.20;99.90
13835;DHT22;6988;52.614;13.500;2023-03-05T03:04:15;2.20;99.90
13835;DHT22;6988;52.614;13.500;2023-03-05T03:09:07;2.20;99.90
13835;DHT22;6988;52.614;13.500;2023-03-05T03:13:59;2.10;99.90
13835;DHT22;6988;52.614;13.500;2023-03-05T03:18:51;2.20;99.90
13835;DHT22;6988;52.614;13.500;2023-03-05T03:23:44;2.20;99.90
13835;DHT22;6988;52.614;13.500;2023-03-05T03:28:36;2.10;99.90
13835;DHT22;6988;52.614;13.500;2023-03-05T03:33:28;2.10;99.90
13835;DHT22;6988;52.614;13.500;2023-03-05T03:38:19;2.20;99.90
13835;DHT22;6988;52.614;13.500;2023-03-05T03:43:13;2.20;99.90
13835;DHT22;6988;52.614;13.500;2023-03-05T03:48:04;2.20;99.90
13835;DHT22;6988;52.614;13.500;2023-03-05T03:52:56;2.10;99.90
13835;DHT22;6988;52.614;13.500;2023-03-05T03:57:48;2.20;99.90
13835;DHT22;6988;52.614;13.500;2023-03-05T04:02:41;2.20;99.90
13835;DHT22;6988;52.614;13.500;2023-03-05T04:07:33;2.10;99.90
13835;DHT22;6988;52.614;13.500;2023-03-05T04:12:25;2.10;99.90
13835;DHT22;6988;52.614;13.500;2023-03-05T04:17:16;2.20;99.90
13835;DHT22;6988;52.614;13.500;2023-03-05T04:22:11;2.20;99.90
13835;DHT22;6988;52.614;13.500;2023-03-05T04:27:04;2.20;99.90
13835;DHT22;6988;52.614;13.500;2023-03-05T04:31:56;2.20;99.90
13835;DHT22;6988;52.614;13.500;2023-03-05T04:36:48;2.20;99.90
13835;DHT22;6988;52.614;13.500;2023-03-05T04:41:41;2.20;99.90
13835;DHT22;6988;52.614;13.500;2023-03-05T04:46:33;2.10;99.90
13835;DHT22;6988;52.614;13.500;2023-03-05T04:51:25;2.20;99.90
13835;DHT22;6988;52.614;13.500;2023-03-05T04:56:16;2.10;99.90
13835;DHT22;6988;52.614;13.500;2023-03-05T05:01:10;2.10;99.90
13835;DHT22;6988;52.614;13.500;2023-03-05T05:06:02;2.10;99.90
13835;DHT22;6988;52.614;13.500;2023-03-05T05:10:56;2.10;99.90
13835;DHT22;6988;52.614;13.500;2023-03-05T05:15:49;2.10;99.90
13835;DHT22;6988;52.614;13.500;2023-03-05T05:20:42;2.00;99.90
13835;DHT22;6988;52.614;13.500;2023-03-05T05:25:34;2.00;99.90
13835;DHT22;6988;52.614;13.500;2023-03-05T05:30:26;1.90;99.90
13835;DHT22;6988;52.614;13.500;2023-03-05T05:35:18;2.00;99.90
13835;DHT22;6988;52.614;13.500;2023-03-05T05:40:12;2.00;99.90
13835;DHT22;6988;52.614;13.500;2023-03-05T05:45:04;1.90;99.90
13835;DHT22;6988;52.614;13.500;2023-03-05T05:49:57;2.00;99.90
13835;DHT22;6988;52.614;13.500;2023-03-05T05:54:49;1.80;99.90
13835;DHT22;6988;52.614;13.500;2023-03-05T05:59:42;1.80;99.90
13835;DHT22;6988;52.614;13.500;2023-03-05T06:04:35;1.70;99.90
13835;DHT22;6988;52.614;13.500;2023-03-05T06:09:27;1.70;99.90
13835;DHT22;6988;52.614;13.500;2023-03-05T06:14:19;1.60;99.90
13835;DHT22;6988;52.614;13.500;2023-03-05T06:19:14;1.60;99.90
13835;DHT22;6988;52.614;13.500;2023-03-05T06:24:06;1.60;99.90
13835;DHT22;6988;52.614;13.500;2023-03-05T06:28:58;1.50;99.90
13835;DHT22;6988;52.614;13.500;2023-03-05T06:33:51;1.60;99.90
13835;DHT22;6988;52.614;13.500;2023-03-05T06:38:46;1.60;99.90
13835;DHT22;6988;52.614;13.500;2023-03-05T06:43:41;1.60;99.90
13835;DHT22;6988;52.614;13.500;2023-03-05T06:48:34;1.90;99.90
13835;DHT22;6988;52.614;13.500;2023-03-05T06:53:26;1.80;99.90
13835;DHT22;6988;52.614;13.500;2023-03-05T06:58:20;1.90;99.90
13835;DHT22;6988;52.614;13.500;2023-03-05T07:03:12;2.00;99.90
13835;DHT22;6988;52.614;13.500;2023-03-05T07:08:04;2.10;99.90
13835;DHT22;6988;52.614;13.500;2023-03-05T07:12:56;2.10;99.90
13835;DHT22;6988;52.614;13.500;2023-03-05T07:17:49;2.20;99.90
13835;DHT22;6988;52.614;13.500;2023-03-05T07:22:41;2.30;99.90
13835;DHT22;6988;52.614;13.500;2023-03-05T07:27:34;2.50;99.90
13835;DHT22;6988;52.614;13.500;2023-03-05T07:32:27;2.50;99.90
13835;DHT22;6988;52.614;13.500;2023-03-05T07:37:20;2.60;99.90
13835;DHT22;6988;52.614;13.500;2023-03-05T07:42:11;2.70;99.90
13835;DHT22;6988;52.614;13.500;2023-03-05T07:47:16;2.80;99.90
13835;DHT22;6988;52.614;13.500;2023-03-05T07:52:08;2.80;99.90
13835;DHT22;6988;52.614;13.500;2023-03-05T07:57:01;3.00;99.90
13835;DHT22;6988;52.614;13.500;2023-03-05T08:01:53;3.10;99.90
13835;DHT22;6988;52.614;13.500;2023-03-05T08:06:45;3.20;99.90
13835;DHT22;6988;52.614;13.500;2023-03-05T08:11:38;3.20;99.90
13835;DHT22;6988;52.614;13.500;2023-03-05T08:16:32;3.10;99.90
13835;DHT22;6988;52.614;13.500;2023-03-05T08:21:25;3.10;99.90
13835;DHT22;6988;52.614;13.500;2023-03-05T08:26:22;3.30;99.90
13835;DHT22;6988;52.614;13.500;2023-03-05T08:31:18;3.30;99.90
13835;DHT22;6988;52.614;13.500;2023-03-05T08:36:13;3.40;99.90
13835;DHT22;6988;52.614;13.500;2023-03-05T08:41:05;3.40;99.90
13835;DHT22;6988;52.614;13.500;2023-03-05T08:45:59;3.50;99.90
13835;DHT22;6988;52.614;13.500;2023-03-05T08:50:51;3.90;99.90
13835;DHT22;6988;52.614;13.500;2023-03-05T08:55:52;4.30;99.90
13835;DHT22;6988;52.614;13.500;2023-03-05T09:00:45;4.60;99.90
13835;DHT22;6988;52.614;13.500;2023-03-05T09:05:36;5.10;99.90
13835;DHT22;6988;52.614;13.500;2023-03-05T09:10:28;5.70;99.90
13835;DHT22;6988;52.614;13.500;2023-03-05T09:15:21;6.40;99.90
13835;DHT22;6988;52.614;13.500;2023-03-05T09:20:13;6.30;99.90
13835;DHT22;6988;52.614;13.500;2023-03-05T09:25:08;5.70;99.90
13835;DHT22;6988;52.614;13.500;2023-03-05T09:30:03;5.20;99.90
13835;DHT22;6988;52.614;13.500;2023-03-05T09:34:57;4.70;99.90
13835;DHT22;6988;52.614;13.500;2023-03-05T09:39:49;4.50;99.90
13835;DHT22;6988;52.614;13.500;2023-03-05T09:44:49;4.40;99.90
13835;DHT22;6988;52.614;13.500;2023-03-05T09:49:54;4.40;99.90
13835;DHT22;6988;52.614;13.500;2023-03-05T09:54:53;4.50;99.90
13835;DHT22;6988;52.614;13.500;2023-03-05T09:59:49;4.90;99.90
13835;DHT22;6988;52.614;13.500;2023-03-05T10:04:48;5.00;99.90
13835;DHT22;6988;52.614;13.500;2023-03-05T10:09:50;5.00;99.90
13835;DHT22;6988;52.614;13.500;2023-03-05T10:14:46;4.90;99.90
13835;DHT22;6988;52.614;13.500;2023-03-05T10:20:13;4.90;99.90
13835;DHT22;6988;52.614;13.500;2023-03-05T10:25:20;4.70;99.90
13835;DHT22;6988;52.614;13.500;2023-03-05T10:30:24;4.60;99.90
13835;DHT22;6988;52.614;13.500;2023-03-05T10:41:19;4.50;99.90
13835;DHT22;6988;52.614;13.500;2023-03-05T10:46:21;4.50;99.90
13835;DHT22;6988;52.614;13.500;2023-03-05T10:51:22;4.60;99.90
13835;DHT22;6988;52.614;13.500;2023-03-05T10:56:26;4.60;99.90
13835;DHT22;6988;52.614;13.500;2023-03-05T11:01:22;4.60;99.90
13835;DHT22;6988;52.614;13.500;2023-03-05T11:06:26;4.50;99.90
13835;DHT22;6988;52.614;13.500;2023-03-05T11:11:24;4.30;99.90
13835;DHT22;6988;52.614;13.500;2023-03-05T11:16:17;4.20;99.90
13835;DHT22;6988;52.614;13.500;2023-03-05T11:21:11;4.00;99.90
13835;DHT22;6988;52.614;13.500;2023-03-05T11:26:18;3.90;99.90
13835;DHT22;6988;52.614;13.500;2023-03-05T11:31:22;3.90;99.90
13835;DHT22;6988;52.614;13.500;2023-03-05T11:36:24;3.90;99.90
13835;DHT22;6988;52.614;13.500;2023-03-05T11:41:20;4.00;99.90
13835;DHT22;6988;52.614;13.500;2023-03-05T11:46:17;4.20;99.90
13835;DHT22;6988;52.614;13.500;2023-03-05T11:51:17;4.70;99.90
13835;DHT22;6988;52.614;13.500;2023-03-05T11:56:18;5.00;99.90
13835;DHT22;6988;52.614;13.500;2023-03-05T12:01:15;5.10;99.90
13835;DHT22;6988;52.614;13.500;2023-03-05T12:06:14;5.00;99.90
13835;DHT22;6988;52.614;13.500;2023-03-05T12:11:17;5.00;99.90
13835;DHT22;6988;52.614;13.500;2023-03-05T12:16:16;4.90;99.90
13835;DHT22;6988;52.614;13.500;2023-03-05T12:21:24;5.00;99.90
13835;DHT22;6988;52.614;13.500;2023-03-05T12:26:54;4.90;99.90
13835;DHT22;6988;52.614;13.500;2023-03-05T12:31:57;5.00;99.90
13835;DHT22;6988;52.614;13.500;2023-03-05T12:36:51;5.10;99.90
13835;DHT22;6988;52.614;13.500;2023-03-05T12:41:43;5.00;99.90
13835;DHT22;6988;52.614;13.500;2023-03-05T12:46:35;5.00;99.90
13835;DHT22;6988;52.614;13.500;2023-03-05T12:51:34;5.30;99.90
13835;DHT22;6988;52.614;13.500;2023-03-05T12:56:29;5.20;99.90
13835;DHT22;6988;52.614;13.500;2023-03-05T13:01:33;5.30;99.90
13835;DHT22;6988;52.614;13.500;2023-03-05T13:06:33;5.30;99.90
13835;DHT22;6988;52.614;13.500;2023-03-05T13:11:29;5.30;99.90
13835;DHT22;6988;52.614;13.500;2023-03-05T13:16:25;5.20;99.90
13835;DHT22;6988;52.614;13.500;2023-03-05T13:21:22;5.20;99.90
13835;DHT22;6988;52.614;13.500;2023-03-05T13:26:18;5.10;99.90
13835;DHT22;6988;52.614;13.500;2023-03-05T13:31:16;5.10;99.90
13835;DHT22;6988;52.614;13.500;2023-03-05T13:36:14;4.90;99.90
13835;DHT22;6988;52.614;13.500;2023-03-05T13:41:17;4.80;99.90
13835;DHT22;6988;52.614;13.500;2023-03-05T13:46:11;4.70;99.90
13835;DHT22;6988;52.614;13.500;2023-03-05T13:51:04;4.70;99.90
13835;DHT22;6988;52.614;13.500;2023-03-05T13:56:00;4.70;99.90
13835;DHT22;6988;52.614;13.500;2023-03-05T14:01:02;4.70;99.90
13835;DHT22;6988;52.614;13.500;2023-03-05T14:05:55;4.60;99.90
13835;DHT22;6988;52.614;13.500;2023-03-05T14:10:48;4.70;99.90
13835;DHT22;6988;52.614;13.500;2023-03-05T14:15:41;4.70;99.90
13835;DHT22;6988;52.614;13.500;2023-03-05T14:20:33;4.90;99.90
13835;DHT22;6988;52.614;13.500;2023-03-05T14:25:31;4.90;99.90
13835;DHT22;6988;52.614;13.500;2023-03-05T14:30:27;4.80;99.90
13835;DHT22;6988;52.614;13.500;2023-03-05T14:35:22;4.90;99.90
13835;DHT22;6988;52.614;13.500;2023-03-05T14:40:18;4.70;99.90
13835;DHT22;6988;52.614;13.500;2023-03-05T14:45:14;4.60;99.90
13835;DHT22;6988;52.614;13.500;2023-03-05T14:50:10;4.50;99.90
13835;DHT22;6988;52.614;13.500;2023-03-05T14:55:09;4.50;99.90
13835;DHT22;6988;52.614;13.500;2023-03-05T15:00:09;4.40;99.90
13835;DHT22;6988;52.614;13.500;2023-03-05T15:05:08;4.40;99.90
13835;DHT22;6988;52.614;13.500;2023-03-05T15:10:00;4.30;99.90
13835;DHT22;6988;52.614;13.500;2023-03-05T15:14:52;4.30;99.90
13835;DHT22;6988;52.614;13.500;2023-03-05T15:19:46;4.30;99.90
13835;DHT22;6988;52.614;13.500;2023-03-05T15:24:40;4.30;99.90
13835;DHT22;6988;52.614;13.500;2023-03-05T15:29:32;4.20;99.90
13835;DHT22;6988;52.614;13.500;2023-03-05T15:34:24;4.20;99.90
13835;DHT22;6988;52.614;13.500;2023-03-05T15:39:16;4.20;99.90
13835;DHT22;6988;52.614;13.500;2023-03-05T15:44:09;4.20;99.90
13835;DHT22;6988;52.614;13.500;2023-03-05T15:49:00;4.10;99.90
13835;DHT22;6988;52.614;13.500;2023-03-05T15:53:52;4.10;99.90
13835;DHT22;6988;52.614;13.500;2023-03-05T15:58:45;4.00;99.90
13835;DHT22;6988;52.614;13.500;2023-03-05T16:03:40;4.00;99.90
13835;DHT22;6988;52.614;13.500;2023-03-05T16:08:33;4.00;99.90
13835;DHT22;6988;52.614;13.500;2023-03-05T16:13:27;3.90;99.90
13835;DHT22;6988;52.614;13.500;2023-03-05T16:18:21;3.90;99.90
13835;DHT22;6988;52.614;13.500;2023-03-05T16:23:15;3.80;99.90
13835;DHT22;6988;52.614;13.500;2023-03-05T16:28:07;3.70;99.90
13835;DHT22;6988;52.614;13.500;2023-03-05T16:32:59;3.70;99.90
13835;DHT22;6988;52.614;13.500;2023-03-05T16:37:51;3.70;99.90
13835;DHT22;6988;52.614;13.500;2023-03-05T16:42:44;3.60;99.90
13835;DHT22;6988;52.614;13.500;2023-03-05T16:47:36;3.70;99.90
13835;DHT22;6988;52.614;13.500;2023-03-05T16:52:29;3.50;99.90
13835;DHT22;6988;52.614;13.500;2023-03-05T16:57:21;3.40;99.90
13835;DHT22;6988;52.614;13.500;2023-03-05T17:02:16;3.40;99.90
13835;DHT22;6988;52.614;13.500;2023-03-05T17:07:08;3.40;99.90
13835;DHT22;6988;52.614;13.500;2023-03-05T17:12:00;3.30;99.90
13835;DHT22;6988;52.614;13.500;2023-03-05T17:16:52;3.20;99.90
13835;DHT22;6988;52.614;13.500;2023-03-05T17:21:45;3.30;99.90
13835;DHT22;6988;52.614;13.500;2023-03-05T17:26:40;3.20;99.90
13835;DHT22;6988;52.614;13.500;2023-03-05T17:31:32;3.10;99.90
13835;DHT22;6988;52.614;13.500;2023-03-05T17:36:24;3.10;99.90
13835;DHT22;6988;52.614;13.500;2023-03-05T17:41:18;3.00;99.90
13835;DHT22;6988;52.614;13.500;2023-03-05T17:46:11;3.00;99.90
13835;DHT22;6988;52.614;13.500;2023-03-05T17:51:04;2.90;99.90
13835;DHT22;6988;52.614;13.500;2023-03-05T17:55:56;2.90;99.90
13835;DHT22;6988;52.614;13.500;2023-03-05T18:00:50;2.90;99.90
13835;DHT22;6988;52.614;13.500;2023-03-05T18:05:41;2.80;99.90
13835;DHT22;6988;52.614;13.500;2023-03-05T18:10:33;2.70;99.90
13835;DHT22;6988;52.614;13.500;2023-03-05T18:15:27;2.70;99.90
13835;DHT22;6988;52.614;13.500;2023-03-05T18:20:25;2.70;99.90
13835;DHT22;6988;52.614;13.500;2023-03-05T18:25:19;2.40;99.90
13835;DHT22;6988;52.614;13.500;2023-03-05T18:30:15;2.50;99.90
13835;DHT22;6988;52.614;13.500;2023-03-05T18:35:08;2.50;99.90
13835;DHT22;6988;52.614;13.500;2023-03-05T18:40:01;2.30;99.90
13835;DHT22;6988;52.614;13.500;2023-03-05T18:44:58;2.40;99.90
13835;DHT22;6988;52.614;13.500;2023-03-05T18:49:50;2.20;99.90
13835;DHT22;6988;52.614;13.500;2023-03-05T18:54:42;2.10;99.90
13835;DHT22;6988;52.614;13.500;2023-03-05T18:59:35;2.00;99.90
13835;DHT22;6988;52.614;13.500;2023-03-05T19:04:27;1.90;99.90
13835;DHT22;6988;52.614;13.500;2023-03-05T19:09:18;1.90;99.90
13835;DHT22;6988;52.614;13.500;2023-03-05T19:14:27;1.80;99.90
13835;DHT22;6988;52.614;13.500;2023-03-05T19:19:20;1.80;99.90
13835;DHT22;6988;52.614;13.500;2023-03-05T19:24:14;1.80;99.90
13835;DHT22;6988;52.614;13.500;2023-03-05T19:29:07;1.80;99.90
13835;DHT22;6988;52.614;13.500;2023-03-05T19:34:00;1.80;99.90
13835;DHT22;6988;52.614;13.500;2023-03-05T19:38:54;1.90;99.90
13835;DHT22;6988;52.614;13.500;2023-03-05T19:43:46;1.90;99.90
13835;DHT22;6988;52.614;13.500;2023-03-05T19:48:39;1.90;99.90
13835;DHT22;6988;52.614;13.500;2023-03-05T19:53:31;1.90;99.90
13835;DHT22;6988;52.614;13.500;2023-03-05T19:58:24;2.00;99.90
13835;DHT22;6988;52.614;13.500;2023-03-05T20:03:16;2.00;99.90
13835;DHT22;6988;52.614;13.500;2023-03-05T20:08:08;1.80;99.90
13835;DHT22;6988;52.614;13.500;2023-03-05T20:13:00;1.80;99.90
13835;DHT22;6988;52.614;13.500;2023-03-05T20:17:54;2.00;99.90
13835;DHT22;6988;52.614;13.500;2023-03-05T20:22:46;1.80;99.90
13835;DHT22;6988;52.614;13.500;2023-03-05T20:27:38;1.70;99.90
13835;DHT22;6988;52.614;13.500;2023-03-05T20:32:30;2.00;99.90
13835;DHT22;6988;52.614;13.500;2023-03-05T20:37:23;1.80;99.90
13835;DHT22;6988;52.614;13.500;2023-03-05T20:42:20;1.80;99.90
13835;DHT22;6988;52.614;13.500;2023-03-05T20:47:12;1.80;99.90
13835;DHT22;6988;52.614;13.500;2023-03-05T20:52:17;1.80;99.90
13835;DHT22;6988;52.614;13.500;2023-03-05T20:57:10;1.80;99.90
13835;DHT22;6988;52.614;13.500;2023-03-05T21:02:02;1.80;99.90
13835;DHT22;6988;52.614;13.500;2023-03-05T21:06:53;1.80;99.90
13835;DHT22;6988;52.614;13.500;2023-03-05T21:11:46;1.80;99.90
13835;DHT22;6988;52.614;13.500;2023-03-05T21:16:39;1.80;99.90
13835;DHT22;6988;52.614;13.500;2023-03-05T21:21:31;1.80;99.90
13835;DHT22;6988;52.614;13.500;2023-03-05T21:26:22;1.80;99.90
13835;DHT22;6988;52.614;13.500;2023-03-05T21:31:16;1.80;99.90
13835;DHT22;6988;52.614;13.500;2023-03-05T21:36:10;1.80;99.90
13835;DHT22;6988;52.614;13.500;2023-03-05T21:41:03;1.90;99.90
13835;DHT22;6988;52.614;13.500;2023-03-05T21:45:56;1.80;99.90
13835;DHT22;6988;52.614;13.500;2023-03-05T21:50:50;1.80;99.90
13835;DHT22;6988;52.614;13.500;2023-03-05T21:55:46;1.70;99.90
13835;DHT22;6988;52.614;13.500;2023-03-05T22:00:52;1.80;99.90
13835;DHT22;6988;52.614;13.500;2023-03-05T22:05:44;1.80;99.90
13835;DHT22;6988;52.614;13.500;2023-03-05T22:10:38;1.60;99.90
13835;DHT22;6988;52.614;13.500;2023-03-05T22:15:45;1.70;99.90
13835;DHT22;6988;52.614;13.500;2023-03-05T22:20:39;1.70;99.90
13835;DHT22;6988;52.614;13.500;2023-03-05T22:25:32;1.70;99.90
13835;DHT22;6988;52.614;13.500;2023-03-05T22:30:24;1.70;99.90
13835;DHT22;6988;52.614;13.500;2023-03-05T22:35:18;1.70;99.90
13835;DHT22;6988;52.614;13.500;2023-03-05T22:40:14;1.60;99.90
13835;DHT22;6988;52.614;13.500;2023-03-05T22:45:08;1.60;99.90
13835;DHT22;6988;52.614;13.500;2023-03-05T23:04:20;1.40;99.90
13835;DHT22;6988;52.614;13.500;2023-03-05T23:09:28;1.40;99.90
13835;DHT22;6988;52.614;13.500;2023-03-05T23:14:20;1.40;99.90
13835;DHT22;6988;52.614;13.500;2023-03-05T23:19:11;1.30;99.90
13835;DHT22;6988;52.614;13.500;2023-03-05T23:24:06;1.30;99.90
13835;DHT22;6988;52.614;13.500;2023-03-05T23:28:58;1.30;99.90
13835;DHT22;6988;52.614;13.500;2023-03-05T23:33:50;1.30;99.90
13835;DHT22;6988;52.614;13.500;2023-03-05T23:38:42;1.30;99.90
13835;DHT22;6988;52.614;13.500;2023-03-05T23:43:35;1.30;99.90
13835;DHT22;6988;52.614;13.500;2023-03-05T23:48:28;1.30;99.90
13835;DHT22;6988;52.614;13.500;2023-03-05T23:53:23;1.30;99.90
13835;DHT22;6988;52.614;13.500;2023-03-05T23:58:17;1.30;99.90
